createdAt,value
2022-12-12T00:02:16.898Z,27.83
2022-12-12T00:07:20.176Z,22.90
2022-12-12T00:09:49.283Z,26.38
2022-12-12T00:12:18.898Z,23.00
2022-12-12T00:14:48.080Z,24.70
2022-12-12T00:17:24.372Z,22.77
2022-12-12T00:19:53.680Z,24.35
2022-12-12T00:22:22.933Z,23.85
2022-12-12T00:24:52.062Z,21.40
2022-12-12T00:27:21.180Z,22.92
2022-12-12T00:29:54.107Z,21.75
2022-12-12T00:32:26.606Z,22.02
2022-12-12T00:34:55.801Z,21.95
2022-12-12T00:37:25.004Z,19.63
2022-12-12T00:39:54.986Z,22.98
2022-12-12T00:42:26.842Z,18.67
2022-12-12T00:47:33.601Z,22.92
2022-12-12T00:50:02.856Z,18.75
2022-12-12T00:52:32.891Z,22.90
2022-12-12T00:55:08.764Z,20.77
2022-12-12T00:57:38.009Z,19.45
2022-12-12T01:00:10.339Z,25.60
2022-12-12T01:02:41.570Z,18.42
2022-12-12T01:05:11.896Z,18.85
2022-12-12T01:07:41.382Z,24.48
2022-12-12T01:10:11.447Z,20.05
2022-12-12T01:12:40.728Z,22.30
2022-12-12T01:15:12.066Z,23.50
2022-12-12T01:17:44.419Z,18.67
2022-12-12T01:20:18.738Z,18.98
2022-12-12T01:22:53.945Z,20.70
2022-12-12T01:25:28.387Z,17.05
2022-12-12T01:30:37.108Z,19.23
2022-12-12T01:33:08.475Z,20.55
2022-12-12T01:35:37.819Z,20.35
2022-12-12T01:38:07.413Z,20.23
2022-12-12T01:40:41.695Z,18.25
2022-12-12T01:43:18.819Z,18.98
2022-12-12T01:46:20.479Z,17.50
2022-12-12T01:48:55.886Z,17.75
2022-12-12T01:51:28.016Z,14.57
2022-12-12T01:54:02.637Z,16.52
2022-12-12T01:56:33.093Z,18.77
2022-12-12T01:59:15.391Z,15.18
2022-12-12T02:01:50.686Z,15.73
2022-12-12T02:04:29.681Z,15.10
2022-12-12T02:06:59.644Z,15.48
2022-12-12T02:09:29.195Z,13.25
2022-12-12T02:11:59.445Z,16.30
2022-12-12T02:14:31.522Z,15.77
2022-12-12T02:17:31.092Z,17.42
2022-12-12T02:24:09.790Z,12.60
2022-12-12T02:27:08.443Z,14.00
2022-12-12T02:30:08.639Z,13.15
2022-12-12T02:32:59.489Z,13.35
2022-12-12T02:35:42.416Z,12.68
2022-12-12T02:38:22.601Z,11.80
2022-12-12T02:41:03.852Z,12.50
2022-12-12T02:43:40.836Z,12.77
2022-12-12T02:46:17.297Z,10.65
2022-12-12T02:49:01.274Z,10.98
2022-12-12T02:51:38.094Z,11.38
2022-12-12T02:54:15.796Z,11.35
2022-12-12T02:57:01.486Z,11.73
2022-12-12T02:59:34.458Z,9.90
2022-12-12T03:02:35.396Z,11.30
2022-12-12T03:05:34.065Z,8.98
2022-12-12T03:08:16.347Z,13.60
2022-12-12T03:10:55.012Z,10.23
2022-12-12T03:13:33.007Z,8.23
2022-12-12T03:16:14.584Z,10.45
2022-12-12T03:18:58.904Z,8.45
2022-12-12T03:21:39.411Z,11.10
2022-12-12T03:24:22.529Z,10.43
2022-12-12T03:27:00.644Z,10.52
2022-12-12T03:29:39.049Z,8.68
2022-12-12T03:32:13.664Z,10.13
2022-12-12T03:34:46.815Z,8.82
2022-12-12T03:37:25.083Z,8.52
2022-12-12T03:39:59.969Z,10.15
2022-12-12T03:42:40.047Z,8.10
2022-12-12T03:45:15.660Z,8.32
2022-12-12T03:47:51.493Z,9.75
2022-12-12T03:50:29.464Z,9.65
2022-12-12T03:53:05.230Z,8.25
2022-12-12T03:55:39.768Z,11.10
2022-12-12T03:58:21.212Z,9.77
2022-12-12T04:00:53.274Z,10.52
2022-12-12T04:03:29.928Z,9.23
2022-12-12T04:06:25.318Z,8.82
2022-12-12T04:09:13.008Z,10.15
2022-12-12T04:11:59.542Z,9.32
2022-12-12T04:14:48.348Z,9.93
2022-12-12T04:17:23.970Z,8.77
2022-12-12T04:20:10.440Z,7.28
2022-12-12T04:23:01.090Z,9.10
2022-12-12T04:25:58.040Z,9.73
2022-12-12T04:28:29.175Z,8.00
2022-12-12T04:31:04.086Z,11.07
2022-12-12T04:33:42.858Z,8.38
2022-12-12T04:36:15.266Z,9.00
2022-12-12T04:38:53.058Z,8.73
2022-12-12T04:41:26.496Z,8.10
2022-12-12T04:43:58.348Z,9.15
2022-12-12T04:46:30.733Z,8.52
2022-12-12T04:49:03.871Z,9.80
2022-12-12T04:51:47.074Z,9.75
2022-12-12T04:54:21.636Z,9.00
2022-12-12T04:56:56.291Z,9.20
2022-12-12T04:59:26.268Z,8.65
2022-12-12T05:02:01.413Z,8.45
2022-12-12T05:04:43.432Z,8.55
2022-12-12T05:07:18.705Z,10.00
2022-12-12T05:10:01.842Z,9.63
2022-12-12T05:12:41.445Z,8.02
2022-12-12T05:15:12.069Z,8.13
2022-12-12T05:17:49.528Z,8.32
2022-12-12T05:20:18.934Z,8.13
2022-12-12T05:22:48.063Z,8.05
2022-12-12T05:25:28.856Z,8.38
2022-12-12T05:28:00.164Z,9.88
2022-12-12T05:30:29.775Z,8.68
2022-12-12T05:33:04.906Z,7.93
2022-12-12T05:35:40.377Z,9.52
2022-12-12T05:38:09.812Z,6.88
2022-12-12T05:40:39.438Z,7.15
2022-12-12T05:43:16.854Z,9.18
2022-12-12T05:45:46.692Z,5.97
2022-12-12T05:48:27.378Z,7.53
2022-12-12T05:50:56.914Z,6.45
2022-12-12T05:53:26.054Z,7.50
2022-12-12T05:55:55.427Z,7.80
2022-12-12T05:58:26.567Z,7.07
2022-12-12T06:01:00.083Z,6.18
2022-12-12T06:03:32.651Z,7.00
2022-12-12T06:06:02.667Z,6.57
2022-12-12T06:08:37.127Z,8.15
2022-12-12T06:11:08.618Z,5.82
2022-12-12T06:13:42.195Z,8.13
2022-12-12T06:16:14.947Z,7.40
2022-12-12T06:18:44.208Z,6.18
2022-12-12T06:21:18.909Z,7.43
2022-12-12T06:23:48.236Z,6.78
2022-12-12T06:26:19.249Z,6.97
2022-12-12T06:28:55.526Z,7.10
2022-12-12T06:31:24.912Z,5.80
2022-12-12T06:33:54.063Z,5.22
2022-12-12T06:36:25.600Z,6.20
2022-12-12T06:38:56.471Z,7.15
2022-12-12T06:41:27.474Z,6.53
2022-12-12T06:43:58.772Z,5.57
2022-12-12T06:46:30.159Z,6.97
2022-12-12T06:49:01.295Z,8.07
2022-12-12T06:54:07.925Z,6.57
2022-12-12T06:56:40.977Z,7.72
2022-12-12T06:59:21.263Z,7.32
2022-12-12T07:01:57.336Z,7.13
2022-12-12T07:04:27.647Z,7.07
2022-12-12T07:06:57.759Z,7.93
2022-12-12T07:09:27.880Z,9.02
2022-12-12T07:11:57.085Z,7.18
2022-12-12T07:14:33.185Z,7.38
2022-12-12T07:17:02.302Z,8.98
2022-12-12T07:19:31.537Z,8.98
2022-12-12T07:22:07.479Z,7.95
2022-12-12T07:24:39.136Z,11.48
2022-12-12T07:27:09.000Z,7.85
2022-12-12T07:29:40.156Z,10.48
2022-12-12T07:32:14.429Z,8.43
2022-12-12T07:34:43.639Z,8.82
2022-12-12T07:37:12.663Z,9.13
2022-12-12T07:39:42.155Z,8.65
2022-12-12T07:42:11.227Z,9.60
2022-12-12T07:44:47.418Z,10.63
2022-12-12T07:47:16.672Z,9.40
2022-12-12T07:49:45.961Z,10.75
2022-12-12T07:52:15.145Z,12.25
2022-12-12T07:54:44.211Z,11.65
2022-12-12T07:57:13.602Z,11.55
2022-12-12T07:59:47.766Z,13.00
2022-12-12T08:02:19.078Z,12.48
2022-12-12T08:04:48.356Z,16.02
2022-12-12T08:07:18.789Z,13.00
2022-12-12T08:09:48.132Z,11.00
2022-12-12T08:12:17.164Z,14.13
2022-12-12T08:14:51.590Z,11.05
2022-12-12T08:17:22.843Z,12.52
2022-12-12T08:19:52.275Z,12.80
2022-12-12T08:22:22.561Z,10.98
2022-12-12T08:24:52.121Z,11.82
2022-12-12T08:27:21.751Z,13.80
2022-12-12T08:29:53.604Z,12.43
2022-12-12T08:34:59.291Z,11.20
2022-12-12T08:37:33.476Z,10.25
2022-12-12T08:40:14.049Z,10.98
2022-12-12T08:42:43.268Z,9.27
2022-12-12T08:45:13.455Z,7.53
2022-12-12T08:47:50.286Z,10.07
2022-12-12T08:50:19.489Z,10.30
2022-12-12T08:52:48.605Z,9.13
2022-12-12T08:55:32.529Z,11.30
2022-12-12T08:58:01.840Z,8.50
2022-12-12T09:00:31.279Z,8.23
2022-12-12T09:03:02.626Z,10.45
2022-12-12T09:05:31.896Z,9.25
2022-12-12T09:08:01.112Z,8.98
2022-12-12T09:10:31.090Z,8.05
2022-12-12T09:13:00.240Z,9.60
2022-12-12T09:15:29.468Z,10.93
2022-12-12T09:17:58.573Z,10.13
2022-12-12T09:20:34.844Z,10.32
2022-12-12T09:23:09.009Z,10.55
2022-12-12T09:25:46.194Z,10.05
2022-12-12T09:28:17.283Z,9.75
2022-12-12T09:30:47.869Z,10.23
2022-12-12T09:33:22.304Z,10.10
2022-12-12T09:36:01.139Z,10.60
2022-12-12T09:38:30.851Z,8.73
2022-12-12T09:41:05.084Z,10.90
2022-12-12T09:43:38.709Z,10.45
2022-12-12T09:46:17.859Z,10.50
2022-12-12T09:48:48.576Z,14.98
2022-12-12T09:51:26.881Z,10.82
2022-12-12T09:54:01.530Z,11.52
2022-12-12T09:59:42.922Z,13.05
2022-12-12T10:02:38.990Z,13.80
2022-12-12T10:05:24.492Z,15.02
2022-12-12T10:08:04.439Z,16.30
2022-12-12T10:10:38.191Z,13.02
2022-12-12T10:13:14.317Z,13.73
2022-12-12T10:15:47.508Z,12.02
2022-12-12T10:18:20.910Z,13.43
2022-12-12T10:20:55.092Z,14.38
2022-12-12T10:23:34.528Z,14.73
2022-12-12T10:26:07.019Z,12.18
2022-12-12T10:28:37.285Z,15.55
2022-12-12T10:31:28.115Z,13.95
2022-12-12T10:34:07.910Z,20.85
2022-12-12T10:36:54.559Z,17.35
2022-12-12T10:39:37.607Z,16.40
2022-12-12T10:42:18.857Z,13.65
2022-12-12T10:45:01.847Z,15.63
2022-12-12T10:47:32.976Z,16.75
2022-12-12T10:50:22.416Z,15.90
2022-12-12T10:52:51.734Z,14.68
2022-12-12T10:55:24.963Z,14.60
2022-12-12T10:58:03.711Z,17.55
2022-12-12T11:00:35.563Z,16.17
2022-12-12T11:05:48.856Z,16.35
2022-12-12T11:08:28.397Z,17.35
2022-12-12T11:11:06.340Z,15.18
2022-12-12T11:13:48.070Z,18.40
2022-12-12T11:16:24.902Z,14.90
2022-12-12T11:19:04.671Z,15.27
2022-12-12T11:24:31.647Z,17.55
2022-12-12T11:29:46.223Z,18.27
2022-12-12T11:32:18.282Z,15.48
2022-12-12T11:34:52.188Z,17.20
2022-12-12T11:37:26.311Z,17.25
2022-12-12T11:39:57.726Z,15.77
2022-12-12T11:42:31.342Z,19.08
2022-12-12T11:45:04.326Z,15.18
2022-12-12T11:47:40.424Z,14.38
2022-12-12T11:50:21.743Z,20.60
2022-12-12T11:52:53.146Z,14.55
2022-12-12T11:55:36.070Z,19.20
2022-12-12T11:58:18.797Z,17.02
2022-12-12T12:00:59.827Z,13.23
2022-12-12T12:03:53.744Z,14.10
2022-12-12T12:06:38.814Z,14.50
2022-12-12T12:09:26.319Z,16.73
2022-12-12T12:12:03.326Z,12.98
2022-12-12T12:14:50.435Z,12.48
2022-12-12T12:17:28.715Z,14.80
2022-12-12T12:20:12.369Z,17.65
2022-12-12T12:22:52.987Z,14.40
2022-12-12T12:25:32.233Z,15.38
2022-12-12T12:28:14.472Z,12.38
2022-12-12T12:30:59.042Z,12.32
2022-12-12T12:33:40.812Z,12.48
2022-12-12T12:36:21.481Z,15.38
2022-12-12T12:39:07.088Z,14.23
2022-12-12T12:41:46.616Z,12.70
2022-12-12T12:44:30.430Z,12.35
2022-12-12T12:47:12.130Z,11.13
2022-12-12T12:55:02.961Z,11.13
2022-12-12T12:57:36.967Z,10.27
2022-12-12T13:00:16.612Z,10.57
2022-12-12T13:02:55.698Z,10.88
2022-12-12T13:05:38.133Z,9.05
2022-12-12T13:08:17.258Z,7.80
2022-12-12T13:13:30.329Z,7.78
2022-12-12T13:16:04.293Z,8.32
2022-12-12T13:18:45.259Z,8.57
2022-12-12T13:24:12.329Z,8.07
2022-12-12T13:26:58.712Z,6.88
2022-12-12T13:29:36.988Z,7.28
2022-12-12T13:32:34.818Z,8.20
2022-12-12T13:35:11.676Z,7.00
2022-12-12T13:37:47.758Z,8.05
2022-12-12T13:40:27.347Z,6.78
2022-12-12T13:43:08.744Z,7.15
2022-12-12T13:45:42.627Z,7.75
2022-12-12T13:48:44.497Z,7.70
2022-12-12T13:51:42.450Z,5.38
2022-12-12T13:54:52.070Z,5.35
2022-12-12T13:57:33.809Z,5.28
2022-12-12T14:00:20.788Z,5.18
2022-12-12T14:03:01.959Z,5.80
2022-12-12T14:05:41.201Z,4.78
2022-12-12T14:08:23.222Z,5.57
2022-12-12T14:10:57.806Z,5.70
2022-12-12T14:13:44.815Z,6.75
2022-12-12T14:16:35.902Z,5.07
2022-12-12T14:19:08.662Z,5.93
2022-12-12T14:21:48.606Z,5.05
2022-12-12T14:24:48.333Z,5.03
2022-12-12T14:27:19.232Z,5.13
2022-12-12T14:29:48.572Z,6.95
2022-12-12T14:32:44.614Z,6.30
2022-12-12T14:35:33.351Z,5.78
2022-12-12T14:38:17.645Z,5.78
2022-12-12T14:40:54.250Z,8.27
2022-12-12T14:43:27.250Z,5.68
2022-12-12T14:46:00.158Z,5.93
2022-12-12T14:48:33.606Z,4.50
2022-12-12T14:51:08.715Z,5.90
2022-12-12T14:53:47.227Z,5.35
2022-12-12T14:56:18.741Z,6.68
2022-12-12T14:58:55.507Z,6.22
2022-12-12T15:01:33.728Z,6.32
2022-12-12T15:04:20.983Z,5.57
2022-12-12T15:06:53.260Z,7.45
2022-12-12T15:09:28.983Z,6.28
2022-12-12T15:12:14.141Z,6.88
2022-12-12T15:14:54.811Z,7.47
2022-12-12T15:17:29.181Z,5.78
2022-12-12T15:20:02.905Z,6.57
2022-12-12T15:22:35.621Z,7.05
2022-12-12T15:27:45.384Z,7.03
2022-12-12T15:30:33.894Z,7.38
2022-12-12T15:33:05.067Z,6.35
2022-12-12T15:35:36.708Z,6.78
2022-12-12T15:38:14.630Z,7.65
2022-12-12T15:41:13.077Z,7.03
2022-12-12T15:43:49.019Z,7.63
2022-12-12T15:48:55.257Z,6.05
2022-12-12T15:51:31.625Z,6.20
2022-12-12T15:56:43.066Z,6.22
2022-12-12T15:59:27.892Z,6.50
2022-12-12T16:02:27.722Z,6.72
2022-12-12T16:05:00.453Z,7.00
2022-12-12T16:07:37.081Z,5.45
2022-12-12T16:10:23.507Z,6.15
2022-12-12T16:13:04.722Z,6.32
2022-12-12T16:15:37.257Z,5.72
2022-12-12T16:18:19.399Z,7.57
2022-12-12T16:23:31.586Z,8.98
2022-12-12T16:26:01.320Z,8.00
2022-12-12T16:28:32.089Z,7.22
2022-12-12T16:31:03.173Z,7.35
2022-12-12T16:33:35.449Z,7.90
2022-12-12T16:36:06.429Z,7.78
2022-12-12T16:38:40.034Z,6.73
2022-12-12T16:41:14.448Z,7.22
2022-12-12T16:43:44.432Z,6.68
2022-12-12T16:46:20.821Z,8.10
2022-12-12T16:48:50.649Z,8.40
2022-12-12T16:51:23.466Z,7.43
2022-12-12T16:54:00.284Z,9.07
2022-12-12T16:56:29.560Z,7.65
2022-12-12T16:58:58.676Z,8.25
2022-12-12T17:04:16.952Z,7.13
2022-12-12T17:06:46.272Z,8.00
2022-12-12T17:09:17.557Z,7.13
2022-12-12T17:11:46.784Z,7.97
2022-12-12T17:16:55.715Z,6.20
2022-12-12T17:19:26.019Z,5.63
2022-12-12T17:21:55.050Z,6.35
2022-12-12T17:24:26.344Z,4.43
2022-12-12T17:27:00.625Z,6.30
2022-12-12T17:29:30.382Z,6.05
2022-12-12T17:31:59.929Z,6.90
2022-12-12T17:34:34.420Z,8.40
2022-12-12T17:37:03.752Z,7.40
2022-12-12T17:39:34.944Z,7.60
2022-12-12T17:42:04.140Z,5.78
2022-12-12T17:44:33.581Z,6.72
2022-12-12T17:47:03.221Z,9.70
2022-12-12T17:49:32.668Z,7.43
2022-12-12T17:52:03.079Z,5.22
2022-12-12T17:54:32.375Z,5.95
2022-12-12T17:57:03.485Z,6.18
2022-12-12T17:59:32.655Z,7.10
2022-12-12T18:02:01.822Z,6.20
2022-12-12T18:04:37.681Z,6.30
2022-12-12T18:07:07.188Z,7.07
2022-12-12T18:09:42.119Z,7.03
2022-12-12T18:12:13.278Z,5.93
2022-12-12T18:14:42.507Z,5.07
2022-12-12T18:17:11.664Z,5.80
2022-12-12T18:19:40.907Z,6.13
2022-12-12T18:22:10.348Z,5.97
2022-12-12T18:24:39.552Z,5.20
2022-12-12T18:27:08.779Z,4.97
2022-12-12T18:29:50.207Z,4.45
2022-12-12T18:32:19.366Z,6.32
2022-12-12T18:34:48.676Z,5.47
2022-12-12T18:37:18.031Z,6.32
2022-12-12T18:39:47.205Z,6.10
2022-12-12T18:42:21.637Z,5.43
2022-12-12T18:44:52.946Z,6.22
2022-12-12T18:47:23.597Z,6.20
2022-12-12T18:49:52.910Z,6.43
2022-12-12T18:52:22.081Z,7.03
2022-12-12T18:55:08.859Z,5.45
2022-12-12T18:57:38.047Z,5.47
2022-12-12T19:00:10.775Z,6.63
2022-12-12T19:05:31.625Z,5.18
2022-12-12T19:08:00.948Z,4.95
2022-12-12T19:10:30.232Z,5.40
2022-12-12T19:12:59.401Z,6.28
2022-12-12T19:15:30.568Z,4.85
2022-12-12T19:18:05.212Z,4.53
2022-12-12T19:20:34.299Z,5.43
2022-12-12T19:23:08.496Z,5.60
2022-12-12T19:25:42.550Z,5.03
2022-12-12T19:28:13.300Z,4.03
2022-12-12T19:30:44.464Z,4.15
2022-12-12T19:33:19.003Z,4.97
2022-12-12T19:35:48.253Z,4.25
2022-12-12T19:38:22.763Z,4.00
2022-12-12T19:40:58.873Z,4.93
2022-12-12T19:43:30.824Z,4.13
2022-12-12T19:48:36.232Z,3.30
2022-12-12T19:51:10.474Z,4.32
2022-12-12T19:53:48.464Z,3.42
2022-12-12T19:56:25.688Z,4.30
2022-12-12T19:58:55.407Z,3.80
2022-12-12T20:01:33.417Z,3.50
2022-12-12T20:04:09.524Z,4.50
2022-12-12T20:06:45.404Z,3.45
2022-12-12T20:09:15.781Z,4.95
2022-12-12T20:11:45.672Z,4.57
2022-12-12T20:17:07.386Z,4.38
2022-12-12T20:19:36.616Z,4.10
2022-12-12T20:22:05.976Z,4.97
2022-12-12T20:24:37.039Z,4.00
2022-12-12T20:27:07.766Z,4.03
2022-12-12T20:29:37.332Z,4.20
2022-12-12T20:32:09.203Z,5.00
2022-12-12T20:37:09.255Z,4.05
2022-12-12T20:39:43.798Z,4.35
2022-12-12T20:42:34.009Z,4.10
2022-12-12T20:45:03.524Z,4.10
2022-12-12T20:50:16.639Z,4.03
2022-12-12T20:52:45.882Z,4.50
2022-12-12T20:55:15.338Z,4.22
2022-12-12T20:57:45.129Z,6.15
2022-12-12T21:00:15.433Z,4.50
2022-12-12T21:02:47.082Z,4.30
2022-12-12T21:05:16.744Z,4.07
2022-12-12T21:07:46.097Z,4.15
2022-12-12T21:10:20.595Z,3.75
2022-12-12T21:12:49.773Z,4.30
2022-12-12T21:15:19.439Z,4.22
2022-12-12T21:17:51.319Z,4.03
2022-12-12T21:20:20.601Z,5.47
2022-12-12T21:22:49.876Z,3.88
2022-12-12T21:25:24.446Z,3.55
2022-12-12T21:27:53.733Z,3.80
2022-12-12T21:30:23.111Z,3.72
2022-12-12T21:32:54.368Z,4.25
2022-12-12T21:35:24.117Z,4.28
2022-12-12T21:37:53.375Z,3.80
2022-12-12T21:40:22.643Z,3.47
2022-12-12T21:42:52.006Z,3.65
2022-12-12T21:45:21.508Z,3.15
2022-12-12T21:47:55.852Z,3.08
2022-12-12T21:50:32.163Z,2.65
2022-12-12T21:53:19.549Z,2.85
2022-12-12T21:55:48.932Z,3.00
2022-12-12T21:58:18.386Z,3.88
2022-12-12T22:00:47.598Z,3.40
2022-12-12T22:03:16.757Z,3.55
2022-12-12T22:05:48.222Z,2.92
2022-12-12T22:08:18.735Z,3.00
2022-12-12T22:10:48.057Z,2.78
2022-12-12T22:13:29.681Z,4.78
2022-12-12T22:16:00.248Z,2.92
2022-12-12T22:18:30.092Z,3.05
2022-12-12T22:21:08.190Z,3.17
2022-12-12T22:23:40.535Z,3.30
2022-12-12T22:26:17.251Z,2.65
2022-12-12T22:28:46.561Z,3.30
2022-12-12T22:31:15.851Z,3.63
2022-12-12T22:33:50.807Z,4.32
2022-12-12T22:36:26.380Z,3.22
2022-12-12T22:38:56.770Z,2.60
2022-12-12T22:41:28.414Z,2.83
2022-12-12T22:43:59.511Z,3.28
2022-12-12T22:46:29.363Z,2.88
2022-12-12T22:49:00.748Z,3.25
2022-12-12T22:51:33.768Z,3.50
2022-12-12T22:54:10.413Z,2.90
2022-12-12T22:56:40.923Z,2.90
2022-12-12T22:59:12.431Z,2.60
2022-12-12T23:01:43.696Z,2.60
2022-12-12T23:04:15.107Z,2.70
2022-12-12T23:06:46.967Z,2.95
2022-12-12T23:09:23.770Z,3.03
2022-12-12T23:11:53.002Z,2.90
2022-12-12T23:14:25.858Z,3.08
2022-12-12T23:16:56.287Z,3.25
2022-12-12T23:19:33.447Z,3.20
2022-12-12T23:22:04.717Z,3.05
2022-12-12T23:24:39.652Z,2.78
2022-12-12T23:27:08.791Z,3.72
2022-12-12T23:29:38.187Z,3.45
2022-12-12T23:32:07.555Z,4.32
2022-12-12T23:34:36.823Z,2.90
2022-12-12T23:37:07.893Z,3.53
2022-12-12T23:39:37.493Z,3.95
2022-12-12T23:42:06.719Z,3.00
2022-12-12T23:44:35.885Z,2.83
2022-12-12T23:47:04.996Z,2.88
2022-12-12T23:49:39.177Z,3.80
2022-12-12T23:52:10.351Z,3.33
2022-12-12T23:54:44.873Z,2.97
2022-12-12T23:57:14.469Z,2.72
2022-12-12T23:59:43.846Z,3.38
